createdAt,value
2019-05-05T00:01:58.323Z,101132.57
2019-05-05T00:04:49.976Z,101131.39
2019-05-05T00:07:20.053Z,101132.30
2019-05-05T00:09:47.807Z,101128.69
2019-05-05T00:12:29.541Z,101144.33
2019-05-05T00:15:15.482Z,101145.23
2019-05-05T00:17:45.028Z,101141.50
2019-05-05T00:20:14.484Z,101145.02
2019-05-05T00:22:54.620Z,101137.88
2019-05-05T00:25:24.840Z,101145.45
2019-05-05T00:27:52.064Z,101152.26
2019-05-05T00:30:19.804Z,101146.94
2019-05-05T00:32:47.538Z,101145.86
2019-05-05T00:35:15.363Z,101148.75
2019-05-05T00:37:44.949Z,101154.98
2019-05-05T00:40:14.215Z,101152.79
2019-05-05T00:42:42.069Z,101147.47
2019-05-05T00:45:09.848Z,101152.52
2019-05-05T00:48:11.754Z,101155.71
2019-05-05T00:50:39.561Z,101160.59
2019-05-05T00:53:07.370Z,101160.80
2019-05-05T00:55:35.131Z,101161.22
2019-05-05T00:58:05.125Z,101160.53
2019-05-05T01:00:44.430Z,101168.70
2019-05-05T01:03:12.621Z,101164.72
2019-05-05T01:06:05.633Z,101166.72
2019-05-05T01:08:35.234Z,101163.91
2019-05-05T01:11:04.119Z,101166.81
2019-05-05T01:13:34.928Z,101170.22
2019-05-05T01:16:04.771Z,101171.64
2019-05-05T01:18:34.980Z,101177.09
2019-05-05T01:21:04.392Z,101100.36
2019-05-05T01:23:31.712Z,101175.75
2019-05-05T01:25:59.412Z,101179.44
2019-05-05T01:28:27.254Z,101182.55
2019-05-05T01:31:09.716Z,101182.77
2019-05-05T01:33:44.791Z,101186.73
2019-05-05T01:36:12.331Z,101191.14
2019-05-05T01:38:48.450Z,101182.23
2019-05-05T01:41:22.934Z,101192.45
2019-05-05T01:43:50.647Z,101191.48
2019-05-05T01:46:18.387Z,101194.67
2019-05-05T01:48:46.130Z,101192.96
2019-05-05T01:51:14.345Z,101194.75
2019-05-05T01:53:44.145Z,101195.11
2019-05-05T01:56:24.773Z,101199.63
2019-05-05T01:58:54.599Z,101198.25
2019-05-05T02:01:22.155Z,101197.06
2019-05-05T02:03:49.899Z,101203.80
2019-05-05T02:06:17.628Z,101200.77
2019-05-05T02:08:45.562Z,101207.02
2019-05-05T02:11:15.489Z,101204.80
2019-05-05T02:13:44.970Z,101203.31
2019-05-05T02:16:12.271Z,101209.13
2019-05-05T02:18:40.031Z,101205.19
2019-05-05T02:21:08.083Z,101205.55
2019-05-05T02:23:35.948Z,101205.05
2019-05-05T02:26:04.626Z,101199.20
2019-05-05T02:28:51.659Z,101206.91
2019-05-05T02:31:28.697Z,101205.55
2019-05-05T02:33:57.035Z,101206.91
2019-05-05T02:36:25.788Z,101209.70
2019-05-05T02:38:56.644Z,101204.84
2019-05-05T02:41:25.475Z,101205.72
2019-05-05T02:43:55.486Z,101207.02
2019-05-05T02:49:22.195Z,101179.08
2019-05-05T02:51:49.991Z,101209.70
2019-05-05T02:54:18.126Z,101210.66
2019-05-05T02:56:47.701Z,101210.11
2019-05-05T02:59:19.933Z,101137.41
2019-05-05T03:01:58.208Z,101223.41
2019-05-05T03:04:26.018Z,101217.77
2019-05-05T03:06:54.233Z,101216.84
2019-05-05T03:09:24.225Z,101218.27
2019-05-05T03:11:55.230Z,101222.70
2019-05-05T03:14:23.683Z,101222.72
2019-05-05T03:16:54.047Z,101224.04
2019-05-05T03:19:23.443Z,101220.47
2019-05-05T03:21:50.819Z,101223.13
2019-05-05T03:24:18.568Z,101224.94
2019-05-05T03:26:46.422Z,101228.41
2019-05-05T03:29:17.697Z,101227.14
2019-05-05T03:31:46.098Z,101232.79
2019-05-05T03:34:16.430Z,101235.57
2019-05-05T03:36:44.185Z,101236.39
2019-05-05T03:39:17.439Z,101203.27
2019-05-05T03:41:54.374Z,101246.70
2019-05-05T03:44:28.551Z,101253.39
2019-05-05T03:46:56.401Z,101255.60
2019-05-05T03:49:27.329Z,101254.28
2019-05-05T03:51:55.201Z,101252.07
2019-05-05T03:54:23.885Z,101260.95
2019-05-05T03:57:25.015Z,101213.48
2019-05-05T03:59:54.587Z,101259.61
2019-05-05T04:02:51.104Z,101265.91
2019-05-05T04:05:24.236Z,101269.45
2019-05-05T04:07:51.997Z,101272.59
2019-05-05T04:10:19.907Z,101275.31
2019-05-05T04:12:47.693Z,101281.49
2019-05-05T04:15:15.440Z,101278.34
2019-05-05T04:17:57.432Z,101280.09
2019-05-05T04:20:53.515Z,101280.62
2019-05-05T04:23:21.312Z,101280.62
2019-05-05T04:25:49.079Z,101285.08
2019-05-05T04:28:16.850Z,101285.90
2019-05-05T04:30:44.642Z,101288.17
2019-05-05T04:33:14.190Z,101287.75
2019-05-05T04:35:41.935Z,101293.52
2019-05-05T04:38:13.919Z,101295.28
2019-05-05T04:40:58.068Z,101178.03
2019-05-05T04:43:31.383Z,101299.29
2019-05-05T04:46:02.143Z,101297.06
2019-05-05T04:48:37.037Z,101303.28
2019-05-05T04:51:10.074Z,101298.36
2019-05-05T04:53:56.026Z,101300.17
2019-05-05T04:56:30.033Z,101305.45
2019-05-05T04:58:57.994Z,101309.44
2019-05-05T05:01:27.672Z,101307.68
2019-05-05T05:04:13.742Z,101312.13
2019-05-05T05:06:47.528Z,101310.82
2019-05-05T05:09:15.306Z,101321.49
2019-05-05T05:11:44.322Z,101311.72
2019-05-05T05:14:14.231Z,101324.14
2019-05-05T05:16:43.605Z,101322.38
2019-05-05T05:19:11.244Z,101326.39
2019-05-05T05:21:39.016Z,101325.91
2019-05-05T05:24:06.836Z,101332.58
2019-05-05T05:26:34.598Z,101332.97
2019-05-05T05:29:04.356Z,101332.84
2019-05-05T05:31:33.632Z,101342.70
2019-05-05T05:34:01.584Z,101345.69
2019-05-05T05:37:38.957Z,101346.25
2019-05-05T05:44:33.827Z,101241.83
2019-05-05T05:51:04.224Z,101360.73
2019-05-05T06:00:09.966Z,101365.42
2019-05-05T06:02:37.809Z,101364.58
2019-05-05T06:05:05.621Z,101363.53
2019-05-05T06:07:33.663Z,101372.19
2019-05-05T06:10:03.565Z,101371.80
2019-05-05T06:12:31.087Z,101374.45
2019-05-05T06:14:58.938Z,101372.59
2019-05-05T06:17:26.705Z,101372.64
2019-05-05T06:19:54.484Z,101368.98
2019-05-05T06:22:29.238Z,101371.61
2019-05-05T06:24:55.912Z,101365.52
2019-05-05T06:27:44.448Z,101317.28
2019-05-05T06:30:13.680Z,101379.87
2019-05-05T06:32:43.662Z,101387.85
2019-05-05T06:35:11.212Z,101386.41
2019-05-05T06:37:43.507Z,101394.41
2019-05-05T06:40:13.913Z,101390.45
2019-05-05T06:42:59.542Z,101304.58
2019-05-05T06:45:35.269Z,101398.53
2019-05-05T06:48:04.318Z,101394.77
2019-05-05T06:50:32.201Z,101399.81
2019-05-05T06:52:59.953Z,101404.69
2019-05-05T06:55:27.746Z,101401.11
2019-05-05T06:57:55.612Z,101410.05
2019-05-05T07:00:24.186Z,101408.31
2019-05-05T07:02:54.072Z,101408.28
2019-05-05T07:05:23.535Z,101409.50
2019-05-05T07:07:51.399Z,101421.70
2019-05-05T07:10:19.237Z,101418.06
2019-05-05T07:12:47.060Z,101417.16
2019-05-05T07:15:19.388Z,101421.14
2019-05-05T07:17:44.616Z,101417.98
2019-05-05T07:20:13.585Z,101330.41
2019-05-05T07:22:55.710Z,101424.09
2019-05-05T07:25:11.224Z,101419.11
2019-05-05T07:27:39.088Z,101424.38
2019-05-05T07:30:06.876Z,101420.89
2019-05-05T07:32:34.820Z,101427.84
2019-05-05T07:35:28.102Z,101422.59
2019-05-05T07:37:55.934Z,101423.52
2019-05-05T07:40:27.547Z,101425.28
2019-05-05T07:42:55.349Z,101426.73
2019-05-05T07:45:25.750Z,101421.70
2019-05-05T07:47:54.322Z,101417.72
2019-05-05T07:50:31.309Z,101187.66
2019-05-05T07:52:51.997Z,101404.31
2019-05-05T07:55:20.042Z,101426.11
2019-05-05T07:57:47.855Z,101220.70
2019-05-05T08:00:15.788Z,101433.50
2019-05-05T08:02:43.983Z,101339.03
2019-05-05T08:05:13.949Z,101430.81
2019-05-05T08:07:41.336Z,101429.03
2019-05-05T08:10:09.094Z,101434.36
2019-05-05T08:12:36.855Z,101437.36
2019-05-05T08:15:04.865Z,101436.91
2019-05-05T08:17:44.771Z,101437.84
2019-05-05T08:20:23.835Z,101433.59
2019-05-05T08:22:53.559Z,101442.05
2019-05-05T08:25:39.856Z,101437.81
2019-05-05T08:28:12.156Z,101439.40
2019-05-05T08:31:04.968Z,101437.17
2019-05-05T08:33:33.582Z,101444.66
2019-05-05T08:36:04.766Z,101447.02
2019-05-05T08:38:34.804Z,101444.31
2019-05-05T08:41:04.552Z,101440.94
2019-05-05T08:43:34.574Z,101431.30
2019-05-05T08:52:50.144Z,101431.60
2019-05-05T09:49:29.326Z,101410.83
2019-05-05T09:51:57.261Z,101422.72
2019-05-05T09:54:25.085Z,101411.70
2019-05-05T09:57:24.238Z,101411.70
2019-05-05T09:59:54.307Z,101417.41
2019-05-05T10:02:24.025Z,101414.38
2019-05-05T10:04:52.080Z,101416.91
2019-05-05T10:07:24.235Z,101422.83
2019-05-05T10:09:53.730Z,101423.39
2019-05-05T10:12:24.363Z,101434.98
2019-05-05T10:15:15.311Z,101438.52
2019-05-05T10:18:14.131Z,101440.02
2019-05-05T10:20:42.102Z,101446.34
2019-05-05T10:26:10.057Z,101429.42
2019-05-05T10:32:09.994Z,101391.38
2019-05-05T10:34:39.060Z,101459.22
2019-05-05T10:37:07.533Z,101452.17
2019-05-05T10:39:40.938Z,101341.81
2019-05-05T10:42:08.985Z,101389.67
2019-05-05T10:44:36.807Z,101440.89
2019-05-05T10:47:05.780Z,101439.43
2019-05-05T10:49:44.155Z,101442.04
2019-05-05T10:52:14.037Z,101447.02
2019-05-05T10:54:44.916Z,101434.02
2019-05-05T10:57:11.209Z,101442.91
2019-05-05T10:59:38.988Z,101440.11
2019-05-05T11:02:06.993Z,101437.33
2019-05-05T11:04:34.819Z,101371.22
2019-05-05T11:07:04.156Z,101436.09
2019-05-05T11:09:33.725Z,101442.69
2019-05-05T11:12:01.689Z,101367.72
2019-05-05T11:14:29.506Z,101450.87
2019-05-05T11:16:57.268Z,101379.07
2019-05-05T11:19:25.085Z,101443.13
2019-05-05T11:21:54.026Z,101447.17
2019-05-05T11:24:29.340Z,101450.24
2019-05-05T11:26:57.274Z,101450.91
2019-05-05T11:29:25.429Z,101448.83
2019-05-05T11:31:53.741Z,101422.23
2019-05-05T11:34:25.338Z,101444.67
2019-05-05T11:37:15.925Z,101451.64
2019-05-05T11:39:44.547Z,101440.98
2019-05-05T11:42:14.603Z,101437.17
2019-05-05T11:44:53.884Z,101446.41
2019-05-05T11:47:37.683Z,101440.98
2019-05-05T11:50:13.950Z,101453.09
2019-05-05T11:52:44.483Z,101380.70
2019-05-05T11:55:14.741Z,101434.29
2019-05-05T11:57:43.669Z,101450.58
2019-05-05T12:00:11.542Z,101453.16
2019-05-05T12:02:40.178Z,101413.72
2019-05-05T12:05:09.415Z,101449.09
2019-05-05T12:08:06.271Z,101450.00
2019-05-05T12:10:51.031Z,101450.38
2019-05-05T12:13:18.825Z,101447.34
2019-05-05T12:15:48.804Z,101450.72
2019-05-05T12:18:26.407Z,101450.58
2019-05-05T12:20:54.521Z,101456.09
2019-05-05T12:23:22.386Z,101458.09
2019-05-05T12:26:04.698Z,101448.97
2019-05-05T12:28:36.450Z,101456.51
2019-05-05T12:31:06.000Z,101449.94
2019-05-05T12:33:33.928Z,101450.95
2019-05-05T12:36:01.877Z,101437.75
2019-05-05T12:38:29.727Z,101436.30
2019-05-05T12:40:57.677Z,101438.61
2019-05-05T12:43:25.550Z,101439.56
2019-05-05T12:46:04.460Z,101448.42
2019-05-05T12:48:34.543Z,101371.95
2019-05-05T12:51:04.196Z,101454.37
2019-05-05T12:53:32.093Z,101445.55
2019-05-05T12:55:59.988Z,101437.18
2019-05-05T12:58:27.791Z,101440.38
2019-05-05T13:01:08.676Z,101442.47
2019-05-05T13:03:36.525Z,101456.12
2019-05-05T13:06:04.409Z,101446.26
2019-05-05T13:08:34.019Z,101437.70
2019-05-05T13:11:03.956Z,101453.66
2019-05-05T13:13:31.692Z,101452.39
2019-05-05T13:15:59.681Z,101364.66
2019-05-05T13:18:27.880Z,101447.30
2019-05-05T13:21:05.288Z,101454.50
2019-05-05T13:23:58.428Z,101465.92
2019-05-05T13:26:34.844Z,101464.45
2019-05-05T13:29:11.402Z,101454.14
2019-05-05T13:31:39.394Z,101453.33
2019-05-05T13:34:07.284Z,101442.41
2019-05-05T13:36:35.092Z,101447.13
2019-05-05T13:39:04.674Z,101447.34
2019-05-05T13:41:33.996Z,101445.91
2019-05-05T13:44:04.497Z,101408.12
2019-05-05T13:46:33.888Z,101370.84
2019-05-05T13:49:28.934Z,101465.09
2019-05-05T13:52:01.739Z,101461.84
2019-05-05T13:54:29.490Z,101450.94
2019-05-05T13:56:57.265Z,101453.14
2019-05-05T13:59:26.321Z,101457.53
2019-05-05T14:02:06.165Z,101462.59
2019-05-05T14:04:34.411Z,101454.70
2019-05-05T14:07:04.019Z,101465.46
2019-05-05T14:09:32.272Z,101387.00
2019-05-05T14:12:03.972Z,101465.02
2019-05-05T14:14:33.498Z,101470.24
2019-05-05T14:17:04.089Z,101455.41
2019-05-05T14:19:34.089Z,101461.34
2019-05-05T14:22:28.002Z,101467.89
2019-05-05T14:25:01.009Z,101464.42
2019-05-05T14:27:28.908Z,101462.14
2019-05-05T14:30:11.265Z,101467.31
2019-05-05T14:32:39.732Z,101475.35
2019-05-05T14:35:35.531Z,101468.53
2019-05-05T14:38:06.572Z,101466.73
2019-05-05T14:40:37.285Z,101470.66
2019-05-05T14:43:05.281Z,101477.73
2019-05-05T14:45:34.007Z,101469.12
2019-05-05T14:48:07.385Z,101473.25
2019-05-05T14:50:35.716Z,101472.14
2019-05-05T14:53:27.715Z,101466.17
2019-05-05T14:55:55.913Z,101466.00
2019-05-05T14:58:23.783Z,101464.73
2019-05-05T15:00:51.586Z,101463.00
2019-05-05T15:03:19.487Z,101470.95
2019-05-05T15:06:38.348Z,101465.11
2019-05-05T15:09:44.542Z,101467.97
2019-05-05T15:12:23.720Z,101459.04
2019-05-05T15:14:51.977Z,101458.75
2019-05-05T15:17:19.903Z,101467.88
2019-05-05T15:19:47.934Z,101465.84
2019-05-05T15:22:15.920Z,101471.74
2019-05-05T15:24:44.179Z,101466.97
2019-05-05T15:27:12.013Z,101465.75
2019-05-05T15:29:39.857Z,101476.73
2019-05-05T15:32:07.707Z,101488.91
2019-05-05T15:34:35.731Z,101487.19
2019-05-05T15:37:03.895Z,101485.30
2019-05-05T15:39:33.641Z,101492.79
2019-05-05T15:44:57.129Z,101500.05
2019-05-05T15:50:40.858Z,101499.09
2019-05-05T15:53:10.969Z,101501.53
2019-05-05T15:55:39.533Z,101503.52
2019-05-05T15:58:09.724Z,101475.49
2019-05-05T16:00:48.662Z,101505.89
2019-05-05T16:03:17.282Z,101494.67
2019-05-05T16:05:45.675Z,101490.12
2019-05-05T16:08:15.899Z,101500.29
2019-05-05T16:10:46.633Z,101494.52
2019-05-05T16:13:35.099Z,101490.02
2019-05-05T16:16:14.681Z,101489.88
2019-05-05T16:19:05.772Z,101498.41
2019-05-05T16:21:46.018Z,101499.70
2019-05-05T16:24:20.019Z,101492.84
2019-05-05T16:32:59.677Z,101493.75
2019-05-05T16:35:27.500Z,101503.72
2019-05-05T16:37:55.627Z,101497.82
2019-05-05T16:40:25.871Z,101497.87
2019-05-05T16:42:54.393Z,101409.39
2019-05-05T16:45:24.549Z,101487.56
2019-05-05T16:47:51.853Z,101493.56
2019-05-05T16:50:22.141Z,101487.22
2019-05-05T16:52:56.604Z,101491.30
2019-05-05T16:55:41.239Z,101490.72
2019-05-05T16:58:09.134Z,101482.19
2019-05-05T17:00:38.551Z,101481.45
2019-05-05T17:03:06.449Z,101485.59
2019-05-05T17:05:34.654Z,101493.92
2019-05-05T17:08:04.597Z,101389.40
2019-05-05T17:10:34.230Z,101498.10
2019-05-05T17:13:11.007Z,101497.38
2019-05-05T17:15:48.308Z,101500.95
2019-05-05T17:18:36.262Z,101503.72
2019-05-05T17:21:17.019Z,101499.80
2019-05-05T17:23:44.896Z,101504.53
2019-05-05T17:26:14.321Z,101501.55
2019-05-05T17:28:46.228Z,101503.89
2019-05-05T17:31:40.903Z,101498.44
2019-05-05T17:34:16.265Z,101273.20
2019-05-05T17:36:45.277Z,101501.95
2019-05-05T17:39:13.840Z,101500.48
2019-05-05T17:42:00.918Z,101499.84
2019-05-05T17:45:04.144Z,101495.05
2019-05-05T17:47:40.204Z,101502.81
2019-05-05T17:50:37.288Z,101503.67
2019-05-05T17:53:27.565Z,101511.01
2019-05-05T17:55:59.502Z,101514.14
2019-05-05T17:58:27.809Z,101514.42
2019-05-05T18:00:58.261Z,101521.03
2019-05-05T18:03:37.713Z,101520.82
2019-05-05T18:06:19.804Z,101526.50
2019-05-05T18:09:05.566Z,101525.93
2019-05-05T18:11:47.804Z,101520.27
2019-05-05T18:14:56.229Z,101527.77
2019-05-05T18:17:26.107Z,101528.87
2019-05-05T18:19:54.077Z,101529.00
2019-05-05T18:25:47.153Z,101524.14
2019-05-05T18:28:19.698Z,101530.48
2019-05-05T18:30:44.699Z,101529.30
2019-05-05T18:33:13.691Z,101532.72
2019-05-05T18:35:41.596Z,101522.97
2019-05-05T18:38:09.335Z,101534.27
2019-05-05T18:40:37.090Z,101528.55
2019-05-05T18:43:09.354Z,101534.70
2019-05-05T18:45:37.209Z,101535.29
2019-05-05T18:48:19.112Z,101530.94
2019-05-05T18:50:47.199Z,101530.79
2019-05-05T18:53:14.962Z,101536.96
2019-05-05T18:57:24.643Z,101533.12
2019-05-05T19:13:56.678Z,101548.61
2019-05-05T19:16:25.915Z,101546.05
2019-05-05T19:22:13.730Z,101552.88
2019-05-05T19:24:41.126Z,101546.77
2019-05-05T19:31:26.071Z,101551.23
2019-05-05T19:37:26.890Z,101549.85
2019-05-05T19:39:56.918Z,101550.02
2019-05-05T19:42:24.771Z,101549.20
2019-05-05T19:44:54.419Z,101556.66
2019-05-05T19:47:24.274Z,101554.72
2019-05-05T19:50:36.856Z,101552.15
2019-05-05T19:53:06.455Z,101550.81
2019-05-05T19:55:36.298Z,101551.63
2019-05-05T19:58:04.546Z,101548.92
2019-05-05T20:00:34.691Z,101555.27
2019-05-05T20:03:05.337Z,101556.94
2019-05-05T20:05:34.449Z,101554.84
2019-05-05T20:08:03.932Z,101561.50
2019-05-05T20:10:50.892Z,101559.97
2019-05-05T20:13:18.929Z,101560.22
2019-05-05T20:15:56.296Z,101561.84
2019-05-05T20:18:24.927Z,101330.45
2019-05-05T20:21:03.165Z,101565.03
2019-05-05T20:23:24.300Z,101557.09
2019-05-05T20:25:53.763Z,101557.27
2019-05-05T20:28:24.100Z,101553.97
2019-05-05T20:30:54.075Z,101554.36
2019-05-05T20:33:28.363Z,101557.52
2019-05-05T20:36:03.585Z,101555.27
2019-05-05T20:38:59.747Z,101554.86
2019-05-05T20:41:27.507Z,101552.80
2019-05-05T20:43:55.319Z,101549.20
2019-05-05T20:46:23.710Z,101555.09
2019-05-05T20:48:54.389Z,101556.56
2019-05-05T20:51:24.274Z,101553.86
2019-05-05T20:53:54.155Z,101551.50
2019-05-05T20:56:21.755Z,101548.95
2019-05-05T20:58:49.530Z,101480.72
2019-05-05T21:01:17.246Z,101483.75
2019-05-05T21:03:44.987Z,101546.34
2019-05-05T21:06:13.845Z,101551.14
2019-05-05T21:08:43.808Z,101545.93
2019-05-05T21:11:11.311Z,101549.98
2019-05-05T21:13:39.078Z,101553.56
2019-05-05T21:16:06.839Z,101545.66
2019-05-05T21:18:34.865Z,101550.04
2019-05-05T21:21:04.665Z,101546.50
2019-05-05T21:23:35.935Z,101543.70
2019-05-05T21:26:06.065Z,101544.47
2019-05-05T21:28:35.446Z,101544.34
2019-05-05T21:31:04.805Z,101544.84
2019-05-05T21:33:34.797Z,101538.11
2019-05-05T21:36:04.299Z,101536.91
2019-05-05T21:38:31.694Z,101535.09
2019-05-05T21:40:59.470Z,101529.97
2019-05-05T21:43:27.178Z,101536.89
2019-05-05T21:45:55.251Z,101532.72
2019-05-05T21:48:24.317Z,101535.29
2019-05-05T21:50:58.476Z,101531.52
2019-05-05T21:53:35.922Z,101534.34
2019-05-05T21:56:26.453Z,101480.49
2019-05-05T21:58:54.811Z,101530.62
2019-05-05T22:01:26.938Z,101521.52
2019-05-05T22:03:53.795Z,101522.16
2019-05-05T22:06:23.970Z,101525.56
2019-05-05T22:08:53.732Z,101519.91
2019-05-05T22:11:21.259Z,101438.33
2019-05-05T22:13:49.011Z,101518.97
2019-05-05T22:16:16.744Z,101522.88
2019-05-05T22:18:56.766Z,101518.08
2019-05-05T22:21:54.507Z,101520.43
2019-05-05T22:24:23.188Z,101512.67
2019-05-05T22:26:50.955Z,101519.88
2019-05-05T22:29:18.689Z,101513.01
2019-05-05T22:31:46.473Z,101517.16
2019-05-05T22:34:14.694Z,101511.41
2019-05-05T22:36:52.925Z,101507.38
2019-05-05T22:39:18.678Z,101507.31
2019-05-05T22:41:46.404Z,101505.72
2019-05-05T22:44:14.252Z,101499.70
2019-05-05T22:46:42.027Z,101498.47
2019-05-05T22:49:10.127Z,101499.98
2019-05-05T22:51:38.225Z,101498.42
2019-05-05T22:54:06.054Z,101499.83
2019-05-05T22:56:34.219Z,101499.19
2019-05-05T22:59:04.101Z,101496.06
2019-05-05T23:01:54.042Z,101493.39
2019-05-05T23:04:43.691Z,101441.59
2019-05-05T23:07:24.815Z,101494.38
2019-05-05T23:09:53.886Z,101491.95
2019-05-05T23:12:21.803Z,101496.20
2019-05-05T23:14:49.541Z,101494.37
2019-05-05T23:17:45.589Z,101487.64
2019-05-05T23:20:28.986Z,101493.58
2019-05-05T23:23:09.803Z,101483.53
2019-05-05T23:25:40.103Z,101481.33
2019-05-05T23:28:07.830Z,101480.38
2019-05-05T23:30:41.590Z,101387.75
2019-05-05T23:33:05.076Z,101483.23
2019-05-05T23:35:43.693Z,101486.53
2019-05-05T23:38:11.651Z,101486.98
2019-05-05T23:40:39.405Z,101493.44
2019-05-05T23:43:07.395Z,101491.30
2019-05-05T23:45:35.135Z,101495.34
2019-05-05T23:48:03.719Z,101491.25
2019-05-05T23:50:33.670Z,101485.99
2019-05-05T23:53:01.034Z,101486.53
2019-05-05T23:55:28.763Z,101393.69
2019-05-05T23:57:56.506Z,101477.35
